Lewiston Nez Perce County Airport
KLWS : now visible

Airfield :











YOU CAN JOIN US ON...

 
LOGIN :

Register | Disclaimer

   EN    FR    IT 

 









Legend :    VFR   Marginal VFR   IFR   Intensive IFR   Very Intensive IFR
Visi :
Ceiling :
>= 8 km
>= 3000ft
5 to 8 km
1000 to 3000 ft
1500m to 5 km
500 to 1000 ft
800 to 1500m
200 to 500 ft
< 800m
< 200 ft
Symbols :   Thunderstorms  Fog  Heavy snow  Heavy precipitations  Wind > 20 kt






- Airport Elevation : 1442 ft
- IATA code : LWS


KLWS - Lewiston Nez Perce County

CURRENT METAR :
  • 041556Z 11006KT 10SM OVC070 M04/M08 A3004 RMK AO2 SLP191 T10391083 $

EXPIRED METARs :
  • 041456Z 10004KT 10SM SCT085 M04/M08 A3006 RMK AO2 SLP197 T10441083 56021 $
  • 041356Z 06006KT 10SM CLR M04/M09 A3008 RMK AO2 SLP202 T10441089 $

TAF KLWS
Valid from the 04 at 12:00 until the 05 at 12:00 UTC


041144Z 0412/0512 09005KT P6SM FEW250
FM041800 VRB05KT 5SM BR OVC050
PROB30 0421/0424 2SM -SN OVC025
FM050000 28004KT 1SM -SN BR SCT005 OVC015
FM050500 VRB03KT 1 1/2SM -SN BR OVC015
PROB30 0506/0512 3/4SM -SN BR OVC006
KZSE FIR / North America



MET'MAP, your aeronautical weather chart ! - Copyright ORBIFLY December 2007 - Disclaimer

ORBIFLY MET'MAP TEAM :

Programming & Development : Alexandra Zaïnal
Original concept : Baudouin d'Aumeries
Technical & hardware support : Manuel Goepfert
Assistance : Marc-Olivier Méhu




SOURCES & CREDITS :

   NOAA       Earth
Advisory